Time;durP1;ratioP1;P1;durP2;ratioP2;P2;SDS_P1;SDS_P2;PMS_P1;PMS_P2;Temp;Humidity;BMP_temperature;BMP_pressure;BME280_temperature;BME280_humidity;BME280_pressure;Samples;Min_cycle;Max_cycle;Signal;HPM_P1;HPM_P2
2021/11/07 00:01:04;;;;;;;3.60;2.30;;;;;;;10.75;65.69;100546.47;5068868;28;20053;-82
2021/11/07 00:03:39;;;;;;;4.28;2.30;;;;;;;10.73;65.82;100557.09;5064218;28;20064;-82
2021/11/07 00:06:11;;;;;;;3.72;2.13;;;;;;;10.68;66.27;100557.19;5073446;28;20056;-82
2021/11/07 00:08:50;;;;;;;4.72;2.30;;;;;;;10.64;66.32;100547.00;5072714;28;20060;-84
2021/11/07 00:11:28;;;;;;;3.00;2.10;;;;;;;10.75;65.92;100531.69;5064338;28;20048;-81
2021/11/07 00:13:56;;;;;;;2.67;2.30;;;;;;;10.72;66.46;100546.25;5077401;28;20477;-83
2021/11/07 00:16:26;;;;;;;2.40;1.70;;;;;;;10.66;66.57;100537.19;5077837;28;20417;-82
2021/11/07 00:19:08;;;;;;;5.57;2.50;;;;;;;10.74;66.71;100530.88;5070486;28;20044;-82
2021/11/07 00:21:43;;;;;;;2.50;2.10;;;;;;;10.76;67.15;100523.03;5065307;28;20052;-82
2021/11/07 00:24:14;;;;;;;3.83;2.10;;;;;;;10.65;67.73;100535.56;5077288;28;20079;-83
2021/11/07 00:26:52;;;;;;;5.63;2.72;;;;;;;10.46;69.17;100544.06;5076215;28;20078;-81
2021/11/07 00:29:23;;;;;;;5.85;2.40;;;;;;;10.73;69.30;100536.75;5075398;28;20461;-81
2021/11/07 00:32:01;;;;;;;5.35;2.05;;;;;;;10.45;69.67;100542.41;5066108;28;20396;-82
2021/11/07 00:37:12;;;;;;;5.03;2.80;;;;;;;10.41;70.38;100521.88;5072186;28;20056;-82
2021/11/07 00:39:45;;;;;;;4.18;2.90;;;;;;;10.45;70.97;100517.34;5075031;28;20056;-82
2021/11/07 00:42:18;;;;;;;3.72;2.78;;;;;;;10.55;71.83;100528.25;5073585;28;20079;-82
2021/11/07 00:44:52;;;;;;;5.93;4.15;;;;;;;10.36;72.67;100514.47;5067859;28;20057;-82
2021/11/07 00:47:37;;;;;;;6.72;3.53;;;;;;;10.12;73.71;100514.69;5067714;28;20048;-82
2021/11/07 00:50:10;;;;;;;5.82;2.78;;;;;;;10.03;73.74;100530.44;5074918;28;20056;-82
2021/11/07 00:52:51;;;;;;;5.38;4.07;;;;;;;9.98;75.07;100510.25;5064175;28;20060;-80
2021/11/07 00:55:23;;;;;;;5.57;4.20;;;;;;;9.92;75.91;100520.66;5073201;28;20053;-81
2021/11/07 00:57:55;;;;;;;5.82;4.40;;;;;;;9.98;76.07;100511.06;5071071;28;20048;-80
2021/11/07 01:00:35;;;;;;;6.10;4.28;;;;;;;9.66;76.89;100512.81;5076434;28;20064;-81
2021/11/07 01:03:10;;;;;;;7.07;3.65;;;;;;;9.60;77.20;100502.09;5075521;28;20060;-81
2021/11/07 01:05:39;;;;;;;7.53;3.95;;;;;;;9.62;77.61;100495.09;5072008;28;20059;-80
2021/11/07 01:08:07;;;;;;;4.90;4.05;;;;;;;9.65;78.11;100494.47;5074462;28;20064;-81
2021/11/07 01:10:35;;;;;;;6.35;4.13;;;;;;;9.70;78.04;100496.31;5068225;28;20079;-80
2021/11/07 01:13:03;;;;;;;7.18;4.13;;;;;;;9.59;78.51;100490.13;5074779;28;20052;-80
2021/11/07 01:15:32;;;;;;;6.35;4.47;;;;;;;9.57;79.06;100492.41;5075085;28;20063;-80
2021/11/07 01:18:00;;;;;;;6.35;3.78;;;;;;;9.45;78.83;100480.94;5075321;28;20528;-81
2021/11/07 01:20:29;;;;;;;6.03;3.55;;;;;;;9.55;78.98;100473.25;5059108;28;20049;-81
2021/11/07 01:23:02;;;;;;;5.70;4.35;;;;;;;9.64;78.21;100481.72;5058400;28;20079;-80
2021/11/07 01:25:33;;;;;;;7.10;4.10;;;;;;;9.39;79.12;100463.56;5075584;28;20057;-81
2021/11/07 01:28:02;;;;;;;5.47;4.03;;;;;;;9.58;78.64;100484.91;5075683;28;20056;-81
2021/11/07 01:30:32;;;;;;;5.70;3.43;;;;;;;9.50;79.23;100475.31;5073143;28;20057;-81
2021/11/07 01:33:03;;;;;;;4.65;3.78;;;;;;;9.66;78.69;100473.03;5076097;28;20512;-81
2021/11/07 01:35:38;;;;;;;5.22;2.85;;;;;;;9.43;79.36;100470.16;5075498;28;20060;-81
2021/11/07 01:38:15;;;;;;;5.03;3.13;;;;;;;9.50;79.22;100465.00;5073726;28;20052;-81
2021/11/07 01:40:47;;;;;;;4.82;3.58;;;;;;;9.46;79.54;100455.63;5077123;28;20068;-80
2021/11/07 01:43:15;;;;;;;4.63;2.58;;;;;;;9.58;78.91;100455.13;5075805;28;20064;-80
2021/11/07 01:45:46;;;;;;;4.10;2.75;;;;;;;9.40;79.86;100447.69;5075273;28;20086;-80
2021/11/07 01:48:15;;;;;;;5.07;3.10;;;;;;;9.60;79.31;100446.50;5070129;28;20071;-80
2021/11/07 01:50:52;;;;;;;5.60;3.75;;;;;;;9.65;79.22;100449.97;5063144;28;20063;-80
2021/11/07 01:53:25;;;;;;;8.40;2.97;;;;;;;9.59;79.50;100442.03;5074877;28;20063;-80
2021/11/07 01:55:56;;;;;;;3.88;2.95;;;;;;;9.77;78.80;100451.44;5076448;28;20053;-81
2021/11/07 01:58:24;;;;;;;3.90;2.75;;;;;;;9.58;79.94;100438.44;5070511;28;20053;-81
2021/11/07 02:00:54;;;;;;;3.80;1.95;;;;;;;9.42;80.62;100437.09;5068290;28;20060;-81
2021/11/07 02:03:22;;;;;;;3.25;2.38;;;;;;;9.34;81.05;100438.63;5074857;28;20048;-81
2021/11/07 02:05:50;;;;;;;4.03;3.05;;;;;;;9.42;81.57;100423.19;5073061;28;20059;-81
2021/11/07 02:08:19;;;;;;;4.30;2.10;;;;;;;9.41;81.63;100416.81;5073411;28;20052;-81
2021/11/07 02:10:50;;;;;;;5.35;2.85;;;;;;;9.55;81.29;100411.25;5072280;28;20056;-81
2021/11/07 02:13:18;;;;;;;4.13;3.13;;;;;;;9.42;81.91;100407.31;5072113;28;20425;-81
2021/11/07 02:15:46;;;;;;;3.38;2.83;;;;;;;9.49;82.41;100399.41;5074850;28;20053;-81
2021/11/07 02:18:16;;;;;;;3.83;3.35;;;;;;;9.43;82.83;100409.00;5062586;28;20056;-81
2021/11/07 02:20:46;;;;;;;3.47;2.50;;;;;;;9.66;81.50;100384.88;5073916;28;20056;-81
2021/11/07 02:23:16;;;;;;;4.25;2.50;;;;;;;9.73;81.24;100390.03;5073648;28;20537;-81
2021/11/07 02:25:46;;;;;;;2.88;2.40;;;;;;;9.49;82.25;100373.53;5074168;28;20075;-82
2021/11/07 02:28:24;;;;;;;3.95;2.05;;;;;;;9.61;80.93;100368.28;5074972;28;20057;-81
2021/11/07 02:30:52;;;;;;;2.22;1.80;;;;;;;9.67;81.33;100363.47;5061791;28;20064;-81
2021/11/07 02:33:20;;;;;;;2.50;2.00;;;;;;;9.75;81.07;100365.50;5061264;28;20053;-81
2021/11/07 02:35:48;;;;;;;2.92;2.00;;;;;;;9.53;82.28;100369.00;5073757;28;20055;-81
2021/11/07 02:38:17;;;;;;;3.08;1.98;;;;;;;9.58;82.30;100357.81;5074224;28;20045;-81
2021/11/07 02:40:44;;;;;;;4.13;2.00;;;;;;;9.78;81.60;100352.94;5072879;28;20059;-81
2021/11/07 02:43:12;;;;;;;3.33;1.65;;;;;;;9.60;82.24;100358.31;5075085;28;20059;-81
2021/11/07 02:45:39;;;;;;;2.40;2.00;;;;;;;9.57;82.53;100352.53;5073066;28;20060;-81
2021/11/07 02:48:07;;;;;;;2.40;2.03;;;;;;;9.67;82.06;100350.38;5074217;28;20048;-81
2021/11/07 02:50:34;;;;;;;2.20;1.70;;;;;;;9.77;81.26;100379.09;5069490;28;20072;-81
2021/11/07 02:53:03;;;;;;;2.38;1.90;;;;;;;9.52;81.81;100362.63;5063983;28;20059;-82
2021/11/07 02:55:31;;;;;;;3.40;2.03;;;;;;;9.62;82.74;100347.72;5071391;28;20052;-81
2021/11/07 02:57:59;;;;;;;4.55;2.45;;;;;;;9.69;82.24;100339.75;5068238;28;20072;-81
2021/11/07 03:00:30;;;;;;;3.00;1.80;;;;;;;9.71;81.86;100350.56;5072925;28;20053;-81
2021/11/07 03:02:58;;;;;;;1.90;1.50;;;;;;;9.63;81.82;100338.22;5065936;28;20135;-81
2021/11/07 03:05:32;;;;;;;3.45;2.00;;;;;;;9.81;81.61;100330.88;5071692;28;20056;-81
2021/11/07 03:07:59;;;;;;;2.63;2.17;;;;;;;9.86;81.84;100335.50;5065758;28;20409;-81
2021/11/07 03:10:30;;;;;;;2.67;1.88;;;;;;;9.88;81.84;100319.31;5071460;28;20058;-81
2021/11/07 03:13:09;;;;;;;4.05;2.97;;;;;;;9.89;81.97;100318.16;5073474;28;20056;-80
2021/11/07 03:15:39;;;;;;;3.80;3.42;;;;;;;9.94;81.99;100332.78;5074073;28;20060;-81
2021/11/07 03:18:08;;;;;;;4.13;3.50;;;;;;;9.90;82.41;100317.03;5068501;28;20060;-81
2021/11/07 03:20:36;;;;;;;3.83;2.70;;;;;;;10.03;81.56;100295.88;5073047;28;20052;-80
2021/11/07 03:23:04;;;;;;;4.40;3.88;;;;;;;9.93;82.66;100306.13;5073052;28;20053;-81
2021/11/07 03:25:33;;;;;;;4.72;4.22;;;;;;;9.96;82.35;100288.78;5073746;28;20064;-81
2021/11/07 03:28:02;;;;;;;4.78;4.10;;;;;;;9.96;82.24;100307.44;5063590;28;20060;-81
2021/11/07 03:30:42;;;;;;;5.07;4.57;;;;;;;10.06;81.89;100292.47;5054198;28;20147;-81
2021/11/07 03:33:25;;;;;;;;;;;;;;;;;;;;;
2021/11/07 03:35:54;;;;;;;5.20;3.85;;;;;;;10.04;81.32;100309.47;5071715;28;20053;-80
2021/11/07 03:38:23;;;;;;;4.80;4.13;;;;;;;10.19;80.93;100310.25;5074317;28;20497;-80
2021/11/07 03:40:52;;;;;;;6.07;4.57;;;;;;;10.16;80.92;100318.09;5073135;28;20056;-80
2021/11/07 03:43:19;;;;;;;5.15;4.60;;;;;;;10.33;80.59;100308.22;5069974;28;20851;-80
2021/11/07 03:45:46;;;;;;;5.60;4.90;;;;;;;10.22;80.43;100307.63;5073893;28;20049;-80
2021/11/07 03:48:14;;;;;;;5.47;4.97;;;;;;;10.33;80.30;100292.38;5076571;28;20433;-80
2021/11/07 03:50:45;;;;;;;6.50;5.70;;;;;;;10.24;80.28;100293.41;5076565;28;20516;-80
2021/11/07 03:53:12;;;;;;;5.90;5.30;;;;;;;10.24;80.22;100276.72;5073158;28;20063;-80
2021/11/07 03:55:40;;;;;;;6.32;5.72;;;;;;;10.30;80.26;100281.03;5075358;28;20539;-80
2021/11/07 03:58:10;;;;;;;5.22;4.72;;;;;;;10.34;79.76;100257.81;5074472;28;20052;-80
2021/11/07 04:00:38;;;;;;;6.10;5.28;;;;;;;10.26;79.74;100272.47;5073430;28;20063;-81
2021/11/07 04:03:05;;;;;;;7.00;6.30;;;;;;;10.20;80.34;100267.34;5078308;28;20052;-81
2021/11/07 04:05:33;;;;;;;7.40;6.13;;;;;;;10.35;80.01;100264.19;5066387;28;20418;-81
2021/11/07 04:08:00;;;;;;;6.68;5.97;;;;;;;10.43;79.63;100260.66;5071046;28;20056;-81
2021/11/07 04:10:28;;;;;;;7.70;6.68;;;;;;;10.50;79.44;100263.00;5075257;28;20075;-81
2021/11/07 04:12:56;;;;;;;8.00;7.20;;;;;;;10.62;79.54;100259.59;5078827;28;20063;-81
2021/11/07 04:15:26;;;;;;;10.00;6.90;;;;;;;10.69;78.79;100254.41;5077726;28;20056;-81
2021/11/07 04:17:56;;;;;;;7.97;7.07;;;;;;;10.41;79.64;100257.34;5076064;28;20524;-81
2021/11/07 04:20:23;;;;;;;8.23;7.40;;;;;;;10.52;79.79;100253.19;5077452;28;20405;-81
2021/11/07 04:22:51;;;;;;;6.68;5.97;;;;;;;10.50;79.30;100251.88;5075850;28;20064;-81
2021/11/07 04:25:18;;;;;;;6.90;6.20;;;;;;;10.39;79.82;100248.50;5071126;28;20063;-81
2021/11/07 04:27:46;;;;;;;6.68;4.70;;;;;;;10.24;80.26;100257.22;5077313;28;20421;-81
2021/11/07 04:30:14;;;;;;;6.13;5.47;;;;;;;10.34;79.87;100251.44;5073678;28;20555;-81
2021/11/07 04:32:42;;;;;;;8.15;7.35;;;;;;;10.50;79.41;100241.53;5063375;28;20437;-81
2021/11/07 04:35:13;;;;;;;8.93;8.03;;;;;;;10.33;79.94;100239.47;5067691;28;20052;-81
2021/11/07 04:37:43;;;;;;;8.95;8.15;;;;;;;10.45;80.09;100235.28;5078626;28;20455;-81
2021/11/07 04:40:12;;;;;;;10.40;6.57;;;;;;;10.29;79.96;100232.03;5076733;28;20052;-81
2021/11/07 04:42:40;;;;;;;8.83;7.63;;;;;;;10.40;79.90;100227.88;5074937;28;20049;-81
2021/11/07 04:45:09;;;;;;;7.28;5.57;;;;;;;10.60;78.59;100222.88;5071291;28;20855;-81
2021/11/07 04:47:36;;;;;;;9.05;7.43;;;;;;;10.56;79.30;100229.13;5076467;28;20052;-81
2021/11/07 04:50:08;;;;;;;8.20;7.15;;;;;;;10.72;78.72;100215.56;5073763;28;20053;-81
2021/11/07 04:52:35;;;;;;;7.68;6.88;;;;;;;10.41;80.03;100214.78;5065483;28;20079;-81
2021/11/07 04:55:03;;;;;;;8.07;7.28;;;;;;;10.63;79.04;100219.47;5071060;28;20048;-81
2021/11/07 04:57:33;;;;;;;7.78;6.97;;;;;;;10.74;78.66;100201.31;5077476;28;20056;-81
2021/11/07 05:00:01;;;;;;;8.10;7.30;;;;;;;10.74;78.60;100213.28;5075581;28;20059;-81
2021/11/07 05:02:28;;;;;;;9.60;6.90;;;;;;;10.79;78.24;100203.97;5076611;28;20059;-81
2021/11/07 05:04:59;;;;;;;7.20;6.18;;;;;;;10.93;78.11;100196.31;5077423;28;20417;-81
2021/11/07 05:07:27;;;;;;;8.15;6.70;;;;;;;10.69;79.10;100193.13;5072813;28;20052;-81
2021/11/07 05:09:56;;;;;;;8.95;7.10;;;;;;;10.85;78.77;100187.91;5072203;28;20058;-81
2021/11/07 05:12:25;;;;;;;7.95;5.68;;;;;;;10.83;78.23;100191.03;5065065;28;20056;-81
2021/11/07 05:14:53;;;;;;;8.13;4.95;;;;;;;10.92;77.98;100186.31;5061051;28;20048;-81
2021/11/07 05:17:20;;;;;;;6.70;6.00;;;;;;;10.93;78.29;100175.97;5074849;28;20390;-81
2021/11/07 05:19:48;;;;;;;8.65;6.50;;;;;;;10.82;78.83;100172.69;5075105;28;20059;-81
2021/11/07 05:22:15;;;;;;;6.80;5.72;;;;;;;10.87;78.63;100163.34;5073414;28;20056;-81
2021/11/07 05:24:44;;;;;;;6.20;5.57;;;;;;;10.80;78.66;100180.53;5072007;28;20056;-81
2021/11/07 05:27:12;;;;;;;8.25;6.78;;;;;;;10.84;78.88;100170.38;5075127;28;20429;-80
2021/11/07 05:29:40;;;;;;;8.90;7.13;;;;;;;10.95;78.72;100173.69;5076687;28;20060;-81
2021/11/07 05:32:08;;;;;;;8.00;7.03;;;;;;;10.69;79.46;100174.44;5076063;28;20548;-81
2021/11/07 05:34:36;;;;;;;7.38;6.68;;;;;;;10.93;78.42;100176.78;5068876;28;20059;-81
2021/11/07 05:37:04;;;;;;;8.93;6.85;;;;;;;11.00;78.16;100169.94;5074282;28;20059;-80
2021/11/07 05:39:31;;;;;;;10.65;7.32;;;;;;;10.92;78.79;100152.88;5072966;28;20064;-80
2021/11/07 05:42:00;;;;;;;8.98;6.75;;;;;;;10.81;79.03;100171.03;5073679;28;20060;-81
2021/11/07 05:44:28;;;;;;;8.90;7.97;;;;;;;10.93;78.46;100160.06;5076507;28;20517;-81
2021/11/07 05:46:58;;;;;;;8.90;7.93;;;;;;;10.93;78.40;100174.00;5074171;28;20052;-81
2021/11/07 05:49:25;;;;;;;9.35;8.45;;;;;;;10.86;79.41;100151.38;5075212;28;20397;-81
2021/11/07 05:51:53;;;;;;;9.73;8.73;;;;;;;10.96;79.21;100165.00;5073628;28;20052;-81
2021/11/07 05:54:20;;;;;;;11.52;9.30;;;;;;;11.00;78.74;100151.22;5074175;28;20060;-81
2021/11/07 05:56:47;;;;;;;13.73;9.65;;;;;;;10.96;79.79;100161.38;5074328;28;20048;-81
2021/11/07 05:59:16;;;;;;;16.00;10.40;;;;;;;11.04;79.68;100154.19;5071561;28;20056;-81
2021/11/07 06:01:43;;;;;;;10.00;9.00;;;;;;;10.95;80.12;100156.97;5073812;28;20075;-81
2021/11/07 06:04:11;;;;;;;18.38;11.40;;;;;;;10.91;80.67;100162.38;5074970;28;20052;-81
2021/11/07 06:06:39;;;;;;;12.48;10.55;;;;;;;10.94;80.79;100161.72;5075934;28;20059;-81
2021/11/07 06:09:06;;;;;;;12.93;11.27;;;;;;;10.86;81.42;100168.09;5062016;28;20068;-80
2021/11/07 06:11:33;;;;;;;15.13;12.98;;;;;;;10.96;81.50;100167.81;5070342;28;20056;-80
2021/11/07 06:14:01;;;;;;;13.48;12.05;;;;;;;10.94;81.83;100177.59;5074576;28;20497;-81
2021/11/07 06:16:29;;;;;;;13.20;11.80;;;;;;;10.77;81.72;100161.66;5071615;28;20060;-81
2021/11/07 06:18:57;;;;;;;18.27;13.90;;;;;;;10.76;82.45;100169.22;5075051;28;20052;-80
2021/11/07 06:21:24;;;;;;;16.95;12.75;;;;;;;10.57;83.66;100169.47;5073542;28;20068;-81
2021/11/07 06:23:52;;;;;;;20.88;15.20;;;;;;;10.76;82.88;100168.41;5074663;28;20056;-81
2021/11/07 06:26:20;;;;;;;15.90;13.80;;;;;;;10.60;83.81;100176.34;5068040;28;20055;-81
2021/11/07 06:28:48;;;;;;;18.55;15.07;;;;;;;10.80;83.29;100169.41;5068828;28;20059;-81
2021/11/07 06:31:15;;;;;;;17.80;14.25;;;;;;;10.78;82.91;100174.47;5074126;28;20056;-81
2021/11/07 06:33:44;;;;;;;16.33;14.05;;;;;;;10.84;83.05;100177.94;5075418;28;20052;-80
2021/11/07 06:36:11;;;;;;;12.93;9.63;;;;;;;10.92;82.15;100169.59;5074885;28;20425;-81
2021/11/07 06:38:39;;;;;;;17.60;14.82;;;;;;;10.95;82.64;100182.88;5075410;28;20493;-81
2021/11/07 06:41:06;;;;;;;15.02;13.05;;;;;;;10.79;82.64;100190.03;5073251;28;20060;-81
2021/11/07 06:43:34;;;;;;;18.90;14.68;;;;;;;10.63;83.00;100194.41;5075099;28;20049;-81
2021/11/07 06:46:04;;;;;;;15.38;13.23;;;;;;;10.73;83.32;100194.09;5074855;28;20425;-81
2021/11/07 06:48:32;;;;;;;19.42;16.20;;;;;;;10.94;82.62;100184.03;5074051;28;20079;-81
2021/11/07 06:51:03;;;;;;;19.52;15.88;;;;;;;10.91;83.14;100201.38;5074432;28;20052;-80
2021/11/07 06:53:30;;;;;;;20.10;17.15;;;;;;;10.92;82.46;100197.47;5072022;28;20059;-81
2021/11/07 06:55:58;;;;;;;15.82;12.73;;;;;;;10.89;82.64;100192.53;5074607;28;20063;-81
2021/11/07 06:58:25;;;;;;;18.83;16.08;;;;;;;11.12;82.46;100198.81;5074911;28;20074;-81
2021/11/07 07:00:53;;;;;;;17.70;14.63;;;;;;;11.15;82.14;100194.56;5074742;28;20071;-81
2021/11/07 07:03:20;;;;;;;16.92;15.13;;;;;;;11.12;82.31;100193.22;5072575;28;20057;-81
2021/11/07 07:05:49;;;;;;;15.35;13.50;;;;;;;11.13;82.64;100196.84;5058890;28;20493;-81
2021/11/07 07:08:20;;;;;;;14.32;11.95;;;;;;;11.32;81.62;100210.50;5068307;28;20041;-81
2021/11/07 07:10:53;;;;;;;13.55;10.27;;;;;;;11.32;80.83;100213.28;5069008;28;20494;-81
2021/11/07 07:13:26;;;;;;;12.73;10.77;;;;;;;11.42;81.14;100217.72;5062899;28;20056;-81
2021/11/07 07:16:02;;;;;;;11.05;8.65;;;;;;;11.27;81.59;100213.44;5075214;28;20060;-81
2021/11/07 07:18:38;;;;;;;10.50;8.82;;;;;;;11.36;79.96;100211.50;5072243;28;20060;-81
2021/11/07 07:21:15;;;;;;;9.95;8.88;;;;;;;11.07;80.75;100218.47;5066512;28;20611;-81
2021/11/07 07:24:10;;;;;;;11.02;9.30;;;;;;;11.42;80.41;100217.72;5071535;28;20067;-81
2021/11/07 07:26:54;;;;;;;8.88;7.53;;;;;;;11.38;80.02;100214.75;5064767;28;20477;-80
2021/11/07 07:29:32;;;;;;;11.88;9.13;;;;;;;11.35;80.27;100210.66;5067555;28;20052;-81
2021/11/07 07:34:44;;;;;;;11.63;7.63;;;;;;;11.48;79.18;100219.19;5055763;28;20048;-80
2021/11/07 07:37:11;;;;;;;11.70;8.20;;;;;;;11.54;79.12;100210.34;5066284;28;20053;-80
2021/11/07 07:39:40;;;;;;;10.38;7.80;;;;;;;11.69;78.45;100213.78;5072414;28;20063;-80
2021/11/07 07:42:07;;;;;;;10.52;7.10;;;;;;;11.56;77.60;100216.41;5069288;28;20079;-80
2021/11/07 07:44:35;;;;;;;8.70;6.95;;;;;;;11.60;78.65;100218.56;5066271;28;20059;-80
2021/11/07 07:47:03;;;;;;;10.13;6.88;;;;;;;11.53;78.96;100216.25;5064736;28;20056;-80
2021/11/07 07:49:31;;;;;;;9.77;5.78;;;;;;;11.50;78.72;100219.69;5071587;28;20060;-80
2021/11/07 07:51:58;;;;;;;12.57;7.03;;;;;;;11.55;78.50;100220.38;5070537;28;20441;-80
2021/11/07 07:54:26;;;;;;;10.93;6.32;;;;;;;11.30;78.60;100210.00;5066829;28;20052;-80
2021/11/07 07:56:55;;;;;;;11.27;6.72;;;;;;;11.34;79.09;100214.59;5059245;28;20329;-80
2021/11/07 07:59:22;;;;;;;11.80;5.97;;;;;;;11.54;77.83;100215.09;5071965;28;20162;-81
2021/11/07 08:01:51;;;;;;;8.85;6.20;;;;;;;11.61;78.12;100207.06;5073931;28;20045;-81
2021/11/07 08:04:19;;;;;;;9.10;6.50;;;;;;;11.58;78.33;100211.31;5066926;28;20080;-81
2021/11/07 08:06:47;;;;;;;11.25;6.88;;;;;;;11.85;76.94;100201.00;5067756;28;20048;-81
2021/11/07 08:09:14;;;;;;;9.82;6.65;;;;;;;11.75;77.26;100199.34;5070284;28;20504;-81
2021/11/07 08:11:42;;;;;;;10.05;6.40;;;;;;;11.69;77.45;100203.44;5064901;28;20068;-81
2021/11/07 08:14:11;;;;;;;11.95;6.70;;;;;;;11.66;77.87;100192.97;5065820;28;20052;-81
2021/11/07 08:16:38;;;;;;;9.75;6.53;;;;;;;11.61;77.84;100195.09;5064229;28;20052;-81
2021/11/07 08:19:07;;;;;;;9.82;6.35;;;;;;;11.90;77.02;100192.47;5063527;28;20053;-81
2021/11/07 08:21:39;;;;;;;8.75;6.53;;;;;;;11.89;76.58;100204.78;5061020;28;20068;-81
2021/11/07 08:24:07;;;;;;;11.05;6.97;;;;;;;12.08;76.12;100203.63;5064355;28;20083;-83
2021/11/07 08:26:39;;;;;;;9.70;7.43;;;;;;;12.20;75.97;100195.38;5062866;28;20053;-80
2021/11/07 08:29:08;;;;;;;12.25;7.95;;;;;;;12.13;76.34;100192.28;5071696;28;20483;-81
2021/11/07 08:31:38;;;;;;;17.60;9.13;;;;;;;12.16;76.43;100192.44;5072704;28;20060;-82
2021/11/07 08:34:07;;;;;;;10.32;6.80;;;;;;;12.15;75.96;100195.56;5059991;28;20056;-81
2021/11/07 08:36:43;;;;;;;8.65;6.18;;;;;;;12.13;75.11;100203.44;5066877;28;20502;-81
2021/11/07 08:39:16;;;;;;;10.88;6.95;;;;;;;11.96;76.16;100202.31;5071612;28;20057;-79
2021/11/07 08:41:49;;;;;;;15.13;7.78;;;;;;;12.10;76.22;100199.34;5074610;28;20053;-79
2021/11/07 09:00:48;;;;;;;15.07;9.75;;;;;;;12.33;74.50;100222.28;5072766;28;20056;-79
2021/11/07 09:03:21;;;;;;;16.92;10.57;;;;;;;12.10;75.18;100218.88;5071397;28;20055;-79
2021/11/07 09:08:40;;;;;;;16.05;10.43;;;;;;;12.59;74.61;100225.00;5049503;28;20051;-80
2021/11/07 09:11:08;;;;;;;16.88;10.82;;;;;;;12.69;73.76;100228.59;5067509;28;20509;-80
2021/11/07 09:13:36;;;;;;;15.80;10.65;;;;;;;12.71;73.42;100226.28;5071284;28;20056;-80
2021/11/07 09:16:03;;;;;;;16.88;9.95;;;;;;;12.72;73.15;100225.09;5077007;28;20445;-80
2021/11/07 09:18:33;;;;;;;20.98;11.20;;;;;;;12.89;73.14;100225.06;5072996;28;20055;-80
2021/11/07 09:21:06;;;;;;;15.80;10.77;;;;;;;12.91;72.63;100225.50;5072466;28;20064;-80
2021/11/07 09:23:37;;;;;;;15.80;10.18;;;;;;;12.96;72.67;100216.13;5076774;28;20079;-80
2021/11/07 09:26:26;;;;;;;18.40;10.98;;;;;;;13.10;72.55;100222.31;5071802;28;20064;-78
2021/11/07 09:28:57;;;;;;;20.48;11.35;;;;;;;13.18;71.53;100229.00;5055310;28;20057;-78
2021/11/07 09:34:21;;;;;;;16.15;9.90;;;;;;;13.14;70.91;100233.63;5057081;28;20044;-83
2021/11/07 09:36:51;;;;;;;20.30;11.02;;;;;;;13.23;70.20;100228.81;5065716;28;20052;-79
2021/11/07 09:39:22;;;;;;;13.93;8.35;;;;;;;13.74;68.69;100242.81;5076342;28;20064;-79
2021/11/07 09:42:03;;;;;;;18.98;8.45;;;;;;;13.79;67.24;100240.59;5074084;28;20052;-78
2021/11/07 09:44:38;;;;;;;14.35;7.68;;;;;;;14.06;65.25;100244.00;5076463;28;20056;-78
2021/11/07 09:47:08;;;;;;;14.55;7.60;;;;;;;14.13;64.25;100238.69;5074629;28;20494;-80
2021/11/07 09:49:46;;;;;;;17.90;7.55;;;;;;;14.89;63.31;100250.56;5073399;28;20067;-81
2021/11/07 09:52:19;;;;;;;11.85;5.53;;;;;;;16.83;59.13;100243.09;5074203;28;20044;-80
2021/11/07 09:54:51;;;;;;;14.57;5.53;;;;;;;16.53;58.51;100239.06;5075861;28;20063;-79
2021/11/07 09:57:22;;;;;;;16.50;5.43;;;;;;;17.91;55.63;100242.84;5071495;28;20059;-79
2021/11/07 09:59:53;;;;;;;12.40;5.10;;;;;;;19.16;52.73;100235.13;5074479;28;20478;-79
2021/11/07 10:02:25;;;;;;;11.82;4.80;;;;;;;20.77;47.45;100231.59;5073403;28;20116;-79
2021/11/07 10:04:55;;;;;;;9.32;4.68;;;;;;;20.80;46.75;100229.97;5075545;28;20048;-80
2021/11/07 10:07:26;;;;;;;9.40;4.00;;;;;;;21.70;44.85;100234.31;5074570;28;20060;-80
2021/11/07 10:09:57;;;;;;;12.80;4.38;;;;;;;21.03;45.78;100230.59;5073672;28;20053;-80
2021/11/07 10:12:34;;;;;;;9.82;4.40;;;;;;;20.42;46.46;100229.97;5068785;28;20075;-79
2021/11/07 10:15:04;;;;;;;12.18;4.80;;;;;;;19.53;47.95;100238.13;5059311;28;20064;-79
2021/11/07 10:17:36;;;;;;;11.77;4.93;;;;;;;18.87;48.85;100243.09;5070524;28;20501;-79
2021/11/07 10:20:37;;;;;;;12.82;4.32;;;;;;;17.94;47.96;100235.66;5070168;28;20055;-79
2021/11/07 10:23:09;;;;;;;10.73;3.85;;;;;;;17.29;49.35;100231.38;5065781;28;20528;-78
2021/11/07 10:25:40;;;;;;;11.35;4.13;;;;;;;16.79;51.29;100227.28;5070804;28;20048;-77
2021/11/07 10:28:21;;;;;;;14.85;5.10;;;;;;;18.42;48.18;100222.13;5073375;28;20512;-78
2021/11/07 10:31:11;;;;;;;13.50;5.47;;;;;;;20.35;43.36;100232.75;5060582;28;20056;-78
2021/11/07 10:34:00;;;;;;;10.63;3.97;;;;;;;19.85;43.74;100235.75;5069786;28;20060;-78
2021/11/07 10:53:23;;;;;;;11.88;4.95;;;;;;;16.50;50.05;100242.59;5066836;28;20513;-84
2021/11/07 10:55:52;;;;;;;17.10;6.68;;;;;;;16.21;50.51;100234.19;5075301;28;20049;-83
2021/11/07 10:58:26;;;;;;;12.98;3.60;;;;;;;15.89;51.70;100247.31;5072873;28;20067;-83
2021/11/07 11:00:54;;;;;;;13.80;3.78;;;;;;;15.53;51.81;100222.94;5077560;28;20060;-84
2021/11/07 11:03:23;;;;;;;14.85;4.28;;;;;;;15.23;52.67;100231.63;5075842;28;20409;-85
2021/11/07 11:05:55;;;;;;;13.40;3.70;;;;;;;14.92;54.69;100229.41;5070435;28;20057;-85
2021/11/07 11:08:29;;;;;;;18.75;5.25;;;;;;;14.94;54.54;100224.28;5069725;28;20060;-81
2021/11/07 11:11:03;;;;;;;13.63;5.32;;;;;;;14.71;55.97;100223.91;5054295;28;20056;-79
2021/11/07 11:13:49;;;;;;;15.93;5.07;;;;;;;13.83;56.05;100232.34;5067544;28;20060;-80
2021/11/07 11:16:33;;;;;;;12.63;4.38;;;;;;;15.46;54.25;100203.06;5074930;28;20048;-79
2021/11/07 11:19:31;;;;;;;12.07;4.28;;;;;;;17.61;50.31;100200.31;5070040;28;20056;-79
2021/11/07 11:22:14;;;;;;;11.25;4.15;;;;;;;19.10;46.61;100189.44;5071863;28;20052;-82
2021/11/07 11:27:45;;;;;;;10.68;3.63;;;;;;;19.17;44.41;100181.09;5074626;28;20420;-83
2021/11/07 11:30:35;;;;;;;10.52;4.32;;;;;;;20.17;43.32;100184.44;5055599;28;20385;-83
2021/11/07 11:33:08;;;;;;;;;;;;;;;21.65;37.88;100184.50;5055847;28;20057;-84
2021/11/07 11:35:39;;;;;;;10.60;4.38;;;;;;;21.96;39.77;100184.22;5061232;28;19920;-83
2021/11/07 11:38:13;;;;;;;15.10;3.63;;;;;;;21.55;39.53;100192.94;5074634;28;20053;-84
2021/11/07 11:43:37;;;;;;;11.65;4.03;;;;;;;19.05;43.17;100182.13;5068429;28;20076;-83
2021/11/07 11:46:23;;;;;;;10.40;3.75;;;;;;;19.01;42.64;100181.25;5075030;28;20055;-83
2021/11/07 11:57:47;;;;;;;11.57;3.35;;;;;;;17.08;46.21;100181.00;5068499;28;20417;-83
2021/11/07 12:03:40;;;;;;;13.63;3.80;;;;;;;17.88;44.44;100180.78;5011702;28;20054;-83
2021/11/07 12:06:29;;;;;;;11.98;3.75;;;;;;;17.53;45.12;100185.25;5068743;28;20449;-83
2021/11/07 12:09:23;;;;;;;11.85;2.92;;;;;;;17.44;44.47;100179.81;5077012;28;20059;-83
2021/11/07 12:11:56;;;;;;;10.20;3.03;;;;;;;17.44;45.43;100182.63;5085067;28;20060;-83
2021/11/07 12:14:36;;;;;;;11.63;2.85;;;;;;;17.25;45.95;100176.97;5079350;28;20076;-83
2021/11/07 12:17:07;;;;;;;9.27;3.15;;;;;;;18.23;44.35;100173.03;5078371;28;20048;-83
2021/11/07 12:19:38;;;;;;;10.73;3.20;;;;;;;17.14;46.13;100181.56;5078766;28;20394;-83
2021/11/07 12:22:10;;;;;;;8.57;2.97;;;;;;;17.90;44.05;100176.41;5079195;28;20048;-83
2021/11/07 12:24:56;;;;;;;10.93;3.05;;;;;;;18.07;44.14;100182.78;5079845;28;20060;-83
2021/11/07 12:27:29;;;;;;;15.27;3.60;;;;;;;16.81;44.74;100177.16;5079488;28;20060;-83
2021/11/07 12:30:00;;;;;;;14.27;3.78;;;;;;;18.07;43.84;100182.78;5079237;28;20490;-82
2021/11/07 12:32:33;;;;;;;12.13;3.65;;;;;;;17.54;44.05;100177.63;5078597;28;20533;-83
2021/11/07 12:41:01;;;;;;;10.50;3.60;;;;;;;19.98;39.22;100162.00;5079978;28;20083;-83
2021/11/07 12:43:39;;;;;;;8.85;3.10;;;;;;;19.91;39.41;100161.91;5080048;28;20052;-83
2021/11/07 12:46:44;;;;;;;11.55;3.30;;;;;;;20.23;38.15;100165.94;5078309;28;20063;-83
2021/11/07 12:49:26;;;;;;;12.10;3.67;;;;;;;18.66;39.73;100159.69;5079494;28;20060;-83
2021/11/07 12:51:55;;;;;;;9.98;3.33;;;;;;;18.65;42.14;100157.25;5079051;28;20053;-83